sensor_id;sensor_type;location;lat;lon;timestamp;P1;durP1;ratioP1;P2;durP2;ratioP2
66874;SDS011;53784;52.630;4.896;2023-07-24T00:01:46;11.10;;;4.95;;
66874;SDS011;53784;52.630;4.896;2023-07-24T00:04:11;13.07;;;5.00;;
66874;SDS011;53784;52.630;4.896;2023-07-24T00:06:37;11.80;;;4.85;;
66874;SDS011;53784;52.630;4.896;2023-07-24T00:09:02;12.35;;;4.30;;
66874;SDS011;53784;52.630;4.896;2023-07-24T00:11:28;14.38;;;5.03;;
66874;SDS011;53784;52.630;4.896;2023-07-24T00:13:53;13.10;;;4.55;;
66874;SDS011;53784;52.630;4.896;2023-07-24T00:16:18;11.55;;;4.68;;
66874;SDS011;53784;52.630;4.896;2023-07-24T00:18:44;11.43;;;4.45;;
66874;SDS011;53784;52.630;4.896;2023-07-24T00:21:09;12.07;;;4.30;;
66874;SDS011;53784;52.630;4.896;2023-07-24T00:23:35;12.43;;;4.10;;
66874;SDS011;53784;52.630;4.896;2023-07-24T00:26:01;10.50;;;4.07;;
66874;SDS011;53784;52.630;4.896;2023-07-24T00:28:26;13.38;;;4.20;;
66874;SDS011;53784;52.630;4.896;2023-07-24T00:30:51;13.63;;;4.60;;
66874;SDS011;53784;52.630;4.896;2023-07-24T00:33:16;12.05;;;4.28;;
66874;SDS011;53784;52.630;4.896;2023-07-24T00:35:42;10.32;;;4.05;;
66874;SDS011;53784;52.630;4.896;2023-07-24T00:38:07;10.63;;;4.18;;
66874;SDS011;53784;52.630;4.896;2023-07-24T00:40:32;10.70;;;4.32;;
66874;SDS011;53784;52.630;4.896;2023-07-24T00:42:58;9.63;;;4.15;;
66874;SDS011;53784;52.630;4.896;2023-07-24T00:45:23;11.23;;;3.90;;
66874;SDS011;53784;52.630;4.896;2023-07-24T00:47:49;12.60;;;3.67;;
66874;SDS011;53784;52.630;4.896;2023-07-24T00:50:14;11.20;;;3.90;;
66874;SDS011;53784;52.630;4.896;2023-07-24T00:52:40;11.73;;;3.92;;
66874;SDS011;53784;52.630;4.896;2023-07-24T00:55:05;11.52;;;3.85;;
66874;SDS011;53784;52.630;4.896;2023-07-24T00:57:32;14.07;;;4.05;;
66874;SDS011;53784;52.630;4.896;2023-07-24T00:59:57;13.02;;;4.10;;
66874;SDS011;53784;52.630;4.896;2023-07-24T01:02:22;13.60;;;3.88;;
66874;SDS011;53784;52.630;4.896;2023-07-24T01:04:48;10.98;;;3.50;;
66874;SDS011;53784;52.630;4.896;2023-07-24T01:07:13;9.77;;;3.67;;
66874;SDS011;53784;52.630;4.896;2023-07-24T01:09:41;13.88;;;4.10;;
66874;SDS011;53784;52.630;4.896;2023-07-24T01:12:13;12.65;;;4.05;;
66874;SDS011;53784;52.630;4.896;2023-07-24T01:15:28;10.02;;;3.60;;
66874;SDS011;53784;52.630;4.896;2023-07-24T01:17:37;11.65;;;3.90;;
66874;SDS011;53784;52.630;4.896;2023-07-24T01:20:04;10.82;;;3.63;;
66874;SDS011;53784;52.630;4.896;2023-07-24T01:22:38;11.77;;;3.70;;
66874;SDS011;53784;52.630;4.896;2023-07-24T01:27:43;11.50;;;3.63;;
66874;SDS011;53784;52.630;4.896;2023-07-24T01:30:09;12.60;;;3.20;;
66874;SDS011;53784;52.630;4.896;2023-07-24T01:32:35;12.27;;;3.40;;
66874;SDS011;53784;52.630;4.896;2023-07-24T01:35:00;11.40;;;3.53;;
66874;SDS011;53784;52.630;4.896;2023-07-24T01:37:25;10.35;;;3.83;;
66874;SDS011;53784;52.630;4.896;2023-07-24T01:39:51;10.68;;;3.78;;
66874;SDS011;53784;52.630;4.896;2023-07-24T01:42:18;12.23;;;3.38;;
66874;SDS011;53784;52.630;4.896;2023-07-24T01:44:43;9.57;;;3.08;;
66874;SDS011;53784;52.630;4.896;2023-07-24T01:47:08;12.32;;;3.63;;
66874;SDS011;53784;52.630;4.896;2023-07-24T01:49:34;11.57;;;3.47;;
66874;SDS011;53784;52.630;4.896;2023-07-24T01:51:59;10.57;;;3.28;;
66874;SDS011;53784;52.630;4.896;2023-07-24T01:54:24;10.02;;;3.03;;
66874;SDS011;53784;52.630;4.896;2023-07-24T01:56:50;9.23;;;3.50;;
66874;SDS011;53784;52.630;4.896;2023-07-24T01:59:16;11.95;;;3.50;;
66874;SDS011;53784;52.630;4.896;2023-07-24T02:01:42;9.70;;;3.20;;
66874;SDS011;53784;52.630;4.896;2023-07-24T02:04:07;10.77;;;3.35;;
66874;SDS011;53784;52.630;4.896;2023-07-24T02:06:32;11.60;;;3.60;;
66874;SDS011;53784;52.630;4.896;2023-07-24T02:08:57;12.93;;;3.33;;
66874;SDS011;53784;52.630;4.896;2023-07-24T02:11:23;12.20;;;3.25;;
66874;SDS011;53784;52.630;4.896;2023-07-24T02:13:48;10.20;;;3.00;;
66874;SDS011;53784;52.630;4.896;2023-07-24T02:16:13;11.80;;;3.17;;
66874;SDS011;53784;52.630;4.896;2023-07-24T02:18:40;11.85;;;3.35;;
66874;SDS011;53784;52.630;4.896;2023-07-24T02:21:06;10.20;;;3.40;;
66874;SDS011;53784;52.630;4.896;2023-07-24T02:23:32;10.50;;;3.17;;
66874;SDS011;53784;52.630;4.896;2023-07-24T02:25:57;10.63;;;3.65;;
66874;SDS011;53784;52.630;4.896;2023-07-24T02:28:22;11.10;;;3.50;;
66874;SDS011;53784;52.630;4.896;2023-07-24T02:30:48;13.05;;;3.83;;
66874;SDS011;53784;52.630;4.896;2023-07-24T02:33:13;16.17;;;3.65;;
66874;SDS011;53784;52.630;4.896;2023-07-24T02:35:39;11.68;;;3.47;;
66874;SDS011;53784;52.630;4.896;2023-07-24T02:38:05;11.80;;;3.53;;
66874;SDS011;53784;52.630;4.896;2023-07-24T02:40:30;16.33;;;3.45;;
66874;SDS011;53784;52.630;4.896;2023-07-24T02:42:55;12.63;;;3.72;;
66874;SDS011;53784;52.630;4.896;2023-07-24T02:45:21;15.15;;;4.25;;
66874;SDS011;53784;52.630;4.896;2023-07-24T02:47:46;10.05;;;3.47;;
66874;SDS011;53784;52.630;4.896;2023-07-24T02:50:11;12.63;;;3.88;;
66874;SDS011;53784;52.630;4.896;2023-07-24T02:52:37;15.40;;;4.20;;
66874;SDS011;53784;52.630;4.896;2023-07-24T02:55:02;12.60;;;4.10;;
66874;SDS011;53784;52.630;4.896;2023-07-24T02:57:27;10.68;;;3.90;;
66874;SDS011;53784;52.630;4.896;2023-07-24T02:59:53;13.50;;;3.80;;
66874;SDS011;53784;52.630;4.896;2023-07-24T03:02:18;12.05;;;4.00;;
66874;SDS011;53784;52.630;4.896;2023-07-24T03:04:43;12.63;;;3.95;;
66874;SDS011;53784;52.630;4.896;2023-07-24T03:07:08;13.27;;;4.18;;
66874;SDS011;53784;52.630;4.896;2023-07-24T03:09:34;12.80;;;4.03;;
66874;SDS011;53784;52.630;4.896;2023-07-24T03:11:59;14.57;;;3.83;;
66874;SDS011;53784;52.630;4.896;2023-07-24T03:14:24;13.57;;;3.78;;
66874;SDS011;53784;52.630;4.896;2023-07-24T03:16:51;15.93;;;3.90;;
66874;SDS011;53784;52.630;4.896;2023-07-24T03:19:16;10.85;;;3.63;;
66874;SDS011;53784;52.630;4.896;2023-07-24T03:21:42;14.15;;;3.75;;
66874;SDS011;53784;52.630;4.896;2023-07-24T03:24:08;11.48;;;3.70;;
66874;SDS011;53784;52.630;4.896;2023-07-24T03:26:33;10.65;;;3.40;;
66874;SDS011;53784;52.630;4.896;2023-07-24T03:28:59;13.73;;;4.05;;
66874;SDS011;53784;52.630;4.896;2023-07-24T03:31:25;10.50;;;4.00;;
66874;SDS011;53784;52.630;4.896;2023-07-24T03:33:50;12.52;;;4.30;;
66874;SDS011;53784;52.630;4.896;2023-07-24T03:36:15;14.18;;;4.30;;
66874;SDS011;53784;52.630;4.896;2023-07-24T03:38:41;10.77;;;3.65;;
66874;SDS011;53784;52.630;4.896;2023-07-24T03:41:06;10.15;;;3.97;;
66874;SDS011;53784;52.630;4.896;2023-07-24T03:43:31;13.60;;;4.63;;
66874;SDS011;53784;52.630;4.896;2023-07-24T03:45:56;14.25;;;5.00;;
66874;SDS011;53784;52.630;4.896;2023-07-24T03:48:22;17.10;;;4.85;;
66874;SDS011;53784;52.630;4.896;2023-07-24T03:50:48;13.65;;;4.90;;
66874;SDS011;53784;52.630;4.896;2023-07-24T03:53:14;13.30;;;5.15;;
66874;SDS011;53784;52.630;4.896;2023-07-24T03:55:40;12.30;;;4.80;;
66874;SDS011;53784;52.630;4.896;2023-07-24T03:58:05;13.38;;;4.63;;
66874;SDS011;53784;52.630;4.896;2023-07-24T04:00:30;13.32;;;4.97;;
66874;SDS011;53784;52.630;4.896;2023-07-24T04:02:56;13.10;;;4.75;;
66874;SDS011;53784;52.630;4.896;2023-07-24T04:05:21;18.58;;;5.90;;
66874;SDS011;53784;52.630;4.896;2023-07-24T04:07:46;15.63;;;5.10;;
66874;SDS011;53784;52.630;4.896;2023-07-24T04:10:11;14.23;;;4.80;;
66874;SDS011;53784;52.630;4.896;2023-07-24T04:12:37;16.33;;;5.40;;
66874;SDS011;53784;52.630;4.896;2023-07-24T04:15:02;16.08;;;4.75;;
66874;SDS011;53784;52.630;4.896;2023-07-24T04:17:28;14.00;;;5.35;;
66874;SDS011;53784;52.630;4.896;2023-07-24T04:19:53;13.77;;;5.13;;
66874;SDS011;53784;52.630;4.896;2023-07-24T04:22:18;16.15;;;5.18;;
66874;SDS011;53784;52.630;4.896;2023-07-24T04:24:44;11.95;;;5.05;;
66874;SDS011;53784;52.630;4.896;2023-07-24T04:27:09;17.35;;;5.03;;
66874;SDS011;53784;52.630;4.896;2023-07-24T04:29:34;19.80;;;6.03;;
66874;SDS011;53784;52.630;4.896;2023-07-24T04:32:00;19.27;;;5.55;;
66874;SDS011;53784;52.630;4.896;2023-07-24T04:34:25;14.98;;;5.15;;
66874;SDS011;53784;52.630;4.896;2023-07-24T04:36:50;13.43;;;5.63;;
66874;SDS011;53784;52.630;4.896;2023-07-24T04:39:16;16.13;;;5.63;;
66874;SDS011;53784;52.630;4.896;2023-07-24T04:41:41;14.48;;;5.65;;
66874;SDS011;53784;52.630;4.896;2023-07-24T04:44:06;13.55;;;5.57;;
66874;SDS011;53784;52.630;4.896;2023-07-24T04:46:31;17.00;;;5.68;;
66874;SDS011;53784;52.630;4.896;2023-07-24T04:48:57;13.40;;;5.75;;
66874;SDS011;53784;52.630;4.896;2023-07-24T04:51:22;17.10;;;5.85;;
66874;SDS011;53784;52.630;4.896;2023-07-24T04:53:47;14.27;;;5.60;;
66874;SDS011;53784;52.630;4.896;2023-07-24T04:56:13;14.93;;;5.15;;
66874;SDS011;53784;52.630;4.896;2023-07-24T04:58:38;15.02;;;5.40;;
66874;SDS011;53784;52.630;4.896;2023-07-24T05:01:03;15.55;;;5.20;;
66874;SDS011;53784;52.630;4.896;2023-07-24T05:03:29;15.20;;;5.45;;
66874;SDS011;53784;52.630;4.896;2023-07-24T05:05:55;17.05;;;5.28;;
66874;SDS011;53784;52.630;4.896;2023-07-24T05:08:21;15.07;;;5.20;;
66874;SDS011;53784;52.630;4.896;2023-07-24T05:10:47;14.85;;;4.88;;
66874;SDS011;53784;52.630;4.896;2023-07-24T05:13:12;20.33;;;5.22;;
66874;SDS011;53784;52.630;4.896;2023-07-24T05:15:37;13.70;;;5.22;;
66874;SDS011;53784;52.630;4.896;2023-07-24T05:18:03;14.35;;;4.95;;
66874;SDS011;53784;52.630;4.896;2023-07-24T05:20:28;13.75;;;4.70;;
66874;SDS011;53784;52.630;4.896;2023-07-24T05:22:53;15.45;;;5.40;;
66874;SDS011;53784;52.630;4.896;2023-07-24T05:25:18;10.93;;;4.85;;
66874;SDS011;53784;52.630;4.896;2023-07-24T05:27:44;13.90;;;4.43;;
66874;SDS011;53784;52.630;4.896;2023-07-24T05:30:09;16.75;;;5.00;;
66874;SDS011;53784;52.630;4.896;2023-07-24T05:32:35;12.10;;;4.78;;
66874;SDS011;53784;52.630;4.896;2023-07-24T05:35:00;10.77;;;4.25;;
66874;SDS011;53784;52.630;4.896;2023-07-24T05:37:25;13.05;;;4.68;;
66874;SDS011;53784;52.630;4.896;2023-07-24T05:39:51;14.93;;;4.90;;
66874;SDS011;53784;52.630;4.896;2023-07-24T05:42:16;12.52;;;4.80;;
66874;SDS011;53784;52.630;4.896;2023-07-24T05:44:41;14.98;;;4.72;;
66874;SDS011;53784;52.630;4.896;2023-07-24T05:47:06;12.93;;;4.40;;
66874;SDS011;53784;52.630;4.896;2023-07-24T05:49:32;11.70;;;4.25;;
66874;SDS011;53784;52.630;4.896;2023-07-24T05:51:57;11.73;;;4.75;;
66874;SDS011;53784;52.630;4.896;2023-07-24T05:54:23;15.02;;;4.70;;
66874;SDS011;53784;52.630;4.896;2023-07-24T05:56:48;11.80;;;4.10;;
66874;SDS011;53784;52.630;4.896;2023-07-24T05:59:14;13.52;;;4.35;;
66874;SDS011;53784;52.630;4.896;2023-07-24T06:01:39;12.52;;;4.45;;
66874;SDS011;53784;52.630;4.896;2023-07-24T06:04:05;12.48;;;4.72;;
66874;SDS011;53784;52.630;4.896;2023-07-24T06:06:32;10.52;;;4.50;;
66874;SDS011;53784;52.630;4.896;2023-07-24T06:08:57;11.05;;;4.72;;
66874;SDS011;53784;52.630;4.896;2023-07-24T06:11:22;15.88;;;4.47;;
66874;SDS011;53784;52.630;4.896;2023-07-24T06:13:48;14.10;;;4.60;;
66874;SDS011;53784;52.630;4.896;2023-07-24T06:16:13;12.13;;;4.63;;
66874;SDS011;53784;52.630;4.896;2023-07-24T06:18:39;13.77;;;4.63;;
66874;SDS011;53784;52.630;4.896;2023-07-24T06:21:04;11.88;;;4.55;;
66874;SDS011;53784;52.630;4.896;2023-07-24T06:23:29;13.38;;;4.50;;
66874;SDS011;53784;52.630;4.896;2023-07-24T06:25:54;14.68;;;4.35;;
66874;SDS011;53784;52.630;4.896;2023-07-24T06:28:20;13.57;;;4.78;;
66874;SDS011;53784;52.630;4.896;2023-07-24T06:30:45;13.52;;;4.35;;
66874;SDS011;53784;52.630;4.896;2023-07-24T06:33:11;10.60;;;4.60;;
66874;SDS011;53784;52.630;4.896;2023-07-24T06:35:36;11.02;;;4.80;;
66874;SDS011;53784;52.630;4.896;2023-07-24T06:38:01;13.27;;;4.78;;
66874;SDS011;53784;52.630;4.896;2023-07-24T06:40:27;13.18;;;5.22;;
66874;SDS011;53784;52.630;4.896;2023-07-24T06:42:52;11.98;;;4.75;;
66874;SDS011;53784;52.630;4.896;2023-07-24T06:45:18;13.90;;;5.00;;
66874;SDS011;53784;52.630;4.896;2023-07-24T06:47:43;10.63;;;4.43;;
66874;SDS011;53784;52.630;4.896;2023-07-24T06:50:08;13.20;;;4.95;;
66874;SDS011;53784;52.630;4.896;2023-07-24T06:52:34;13.55;;;4.50;;
66874;SDS011;53784;52.630;4.896;2023-07-24T06:54:59;11.90;;;4.28;;
66874;SDS011;53784;52.630;4.896;2023-07-24T06:57:25;12.15;;;4.35;;
66874;SDS011;53784;52.630;4.896;2023-07-24T06:59:50;10.88;;;4.20;;
66874;SDS011;53784;52.630;4.896;2023-07-24T07:02:15;10.60;;;4.07;;
66874;SDS011;53784;52.630;4.896;2023-07-24T07:04:41;14.38;;;4.65;;
66874;SDS011;53784;52.630;4.896;2023-07-24T07:07:06;13.60;;;4.50;;
66874;SDS011;53784;52.630;4.896;2023-07-24T07:09:32;12.70;;;4.30;;
66874;SDS011;53784;52.630;4.896;2023-07-24T07:11:57;9.80;;;3.90;;
66874;SDS011;53784;52.630;4.896;2023-07-24T07:14:22;11.45;;;4.30;;
66874;SDS011;53784;52.630;4.896;2023-07-24T07:16:48;11.50;;;4.80;;
66874;SDS011;53784;52.630;4.896;2023-07-24T07:19:13;12.95;;;4.80;;
66874;SDS011;53784;52.630;4.896;2023-07-24T07:21:38;13.25;;;4.75;;
66874;SDS011;53784;52.630;4.896;2023-07-24T07:24:04;12.02;;;4.70;;
66874;SDS011;53784;52.630;4.896;2023-07-24T07:26:29;11.10;;;4.78;;
66874;SDS011;53784;52.630;4.896;2023-07-24T07:28:55;13.30;;;5.00;;
66874;SDS011;53784;52.630;4.896;2023-07-24T07:31:20;10.77;;;4.60;;
66874;SDS011;53784;52.630;4.896;2023-07-24T07:33:46;12.27;;;4.97;;
66874;SDS011;53784;52.630;4.896;2023-07-24T07:36:11;11.73;;;4.78;;
66874;SDS011;53784;52.630;4.896;2023-07-24T07:38:37;10.63;;;5.32;;
66874;SDS011;53784;52.630;4.896;2023-07-24T07:41:04;12.55;;;5.03;;
66874;SDS011;53784;52.630;4.896;2023-07-24T07:43:30;13.10;;;4.93;;
66874;SDS011;53784;52.630;4.896;2023-07-24T07:45:55;10.75;;;4.72;;
66874;SDS011;53784;52.630;4.896;2023-07-24T07:48:21;9.70;;;5.40;;
66874;SDS011;53784;52.630;4.896;2023-07-24T07:50:49;10.63;;;5.25;;
66874;SDS011;53784;52.630;4.896;2023-07-24T07:53:16;10.98;;;4.57;;
66874;SDS011;53784;52.630;4.896;2023-07-24T07:55:41;11.93;;;4.90;;
66874;SDS011;53784;52.630;4.896;2023-07-24T07:58:06;13.05;;;5.07;;
66874;SDS011;53784;52.630;4.896;2023-07-24T08:00:31;11.32;;;5.10;;
66874;SDS011;53784;52.630;4.896;2023-07-24T08:02:57;10.18;;;4.30;;
66874;SDS011;53784;52.630;4.896;2023-07-24T08:05:22;10.27;;;4.47;;
66874;SDS011;53784;52.630;4.896;2023-07-24T08:07:47;12.20;;;4.75;;
66874;SDS011;53784;52.630;4.896;2023-07-24T08:10:13;9.13;;;4.43;;
66874;SDS011;53784;52.630;4.896;2023-07-24T08:12:40;11.20;;;4.38;;
66874;SDS011;53784;52.630;4.896;2023-07-24T08:15:05;10.68;;;4.60;;
66874;SDS011;53784;52.630;4.896;2023-07-24T08:17:31;11.70;;;4.35;;
66874;SDS011;53784;52.630;4.896;2023-07-24T08:19:56;11.20;;;4.70;;
66874;SDS011;53784;52.630;4.896;2023-07-24T08:22:21;10.30;;;4.28;;
66874;SDS011;53784;52.630;4.896;2023-07-24T08:24:47;11.40;;;4.13;;
66874;SDS011;53784;52.630;4.896;2023-07-24T08:27:15;8.63;;;4.15;;
66874;SDS011;53784;52.630;4.896;2023-07-24T08:29:40;8.65;;;4.35;;
66874;SDS011;53784;52.630;4.896;2023-07-24T08:32:06;8.07;;;4.60;;
66874;SDS011;53784;52.630;4.896;2023-07-24T08:34:31;8.25;;;4.60;;
66874;SDS011;53784;52.630;4.896;2023-07-24T08:36:57;8.65;;;4.40;;
66874;SDS011;53784;52.630;4.896;2023-07-24T08:39:22;10.13;;;4.78;;
66874;SDS011;53784;52.630;4.896;2023-07-24T08:41:47;9.23;;;4.40;;
66874;SDS011;53784;52.630;4.896;2023-07-24T08:44:13;6.70;;;3.50;;
66874;SDS011;53784;52.630;4.896;2023-07-24T08:46:38;6.65;;;3.50;;
66874;SDS011;53784;52.630;4.896;2023-07-24T08:49:06;7.25;;;3.65;;
66874;SDS011;53784;52.630;4.896;2023-07-24T08:51:31;7.53;;;3.30;;
66874;SDS011;53784;52.630;4.896;2023-07-24T08:53:57;6.40;;;3.50;;
66874;SDS011;53784;52.630;4.896;2023-07-24T08:56:24;7.03;;;3.30;;
66874;SDS011;53784;52.630;4.896;2023-07-24T08:58:49;7.22;;;3.95;;
66874;SDS011;53784;52.630;4.896;2023-07-24T09:01:15;7.70;;;4.10;;
66874;SDS011;53784;52.630;4.896;2023-07-24T09:03:40;7.83;;;3.70;;
66874;SDS011;53784;52.630;4.896;2023-07-24T09:06:05;5.85;;;3.50;;
66874;SDS011;53784;52.630;4.896;2023-07-24T09:08:35;5.93;;;3.63;;
66874;SDS011;53784;52.630;4.896;2023-07-24T09:11:04;7.03;;;3.50;;
66874;SDS011;53784;52.630;4.896;2023-07-24T09:13:31;7.30;;;3.50;;
66874;SDS011;53784;52.630;4.896;2023-07-24T09:15:56;8.40;;;3.88;;
66874;SDS011;53784;52.630;4.896;2023-07-24T09:18:22;9.20;;;3.63;;
66874;SDS011;53784;52.630;4.896;2023-07-24T09:20:47;6.32;;;3.38;;
66874;SDS011;53784;52.630;4.896;2023-07-24T09:23:14;7.38;;;3.70;;
66874;SDS011;53784;52.630;4.896;2023-07-24T09:25:40;6.90;;;3.60;;
66874;SDS011;53784;52.630;4.896;2023-07-24T09:28:14;7.00;;;3.50;;
66874;SDS011;53784;52.630;4.896;2023-07-24T09:30:50;9.57;;;3.80;;
66874;SDS011;53784;52.630;4.896;2023-07-24T09:33:17;9.25;;;3.70;;
66874;SDS011;53784;52.630;4.896;2023-07-24T09:35:42;7.82;;;3.50;;
66874;SDS011;53784;52.630;4.896;2023-07-24T09:38:09;8.00;;;4.07;;
66874;SDS011;53784;52.630;4.896;2023-07-24T09:40:42;7.43;;;3.70;;
66874;SDS011;53784;52.630;4.896;2023-07-24T09:43:25;6.68;;;3.63;;
66874;SDS011;53784;52.630;4.896;2023-07-24T09:45:52;7.03;;;3.70;;
66874;SDS011;53784;52.630;4.896;2023-07-24T09:48:18;7.60;;;3.80;;
66874;SDS011;53784;52.630;4.896;2023-07-24T09:50:45;7.88;;;3.80;;
66874;SDS011;53784;52.630;4.896;2023-07-24T09:56:17;9.05;;;4.10;;
66874;SDS011;53784;52.630;4.896;2023-07-24T09:58:43;8.00;;;4.07;;
66874;SDS011;53784;52.630;4.896;2023-07-24T10:01:10;9.75;;;4.45;;
66874;SDS011;53784;52.630;4.896;2023-07-24T10:03:39;9.27;;;3.90;;
66874;SDS011;53784;52.630;4.896;2023-07-24T10:08:31;7.25;;;3.42;;
66874;SDS011;53784;52.630;4.896;2023-07-24T10:11:00;9.60;;;4.40;;
66874;SDS011;53784;52.630;4.896;2023-07-24T10:13:26;8.18;;;4.15;;
66874;SDS011;53784;52.630;4.896;2023-07-24T10:15:52;9.98;;;4.18;;
66874;SDS011;53784;52.630;4.896;2023-07-24T10:18:17;8.93;;;3.95;;
66874;SDS011;53784;52.630;4.896;2023-07-24T10:20:59;7.32;;;4.03;;
66874;SDS011;53784;52.630;4.896;2023-07-24T10:23:26;8.77;;;4.18;;
66874;SDS011;53784;52.630;4.896;2023-07-24T10:25:51;7.97;;;4.07;;
66874;SDS011;53784;52.630;4.896;2023-07-24T10:28:17;7.57;;;3.30;;
66874;SDS011;53784;52.630;4.896;2023-07-24T10:30:43;6.28;;;3.05;;
66874;SDS011;53784;52.630;4.896;2023-07-24T10:33:10;7.13;;;2.92;;
66874;SDS011;53784;52.630;4.896;2023-07-24T10:35:37;7.40;;;3.15;;
66874;SDS011;53784;52.630;4.896;2023-07-24T10:38:06;9.82;;;3.20;;
66874;SDS011;53784;52.630;4.896;2023-07-24T10:40:32;7.18;;;3.05;;
66874;SDS011;53784;52.630;4.896;2023-07-24T10:42:58;6.93;;;2.88;;
66874;SDS011;53784;52.630;4.896;2023-07-24T10:45:24;5.45;;;2.55;;
66874;SDS011;53784;52.630;4.896;2023-07-24T10:47:51;6.70;;;2.35;;
66874;SDS011;53784;52.630;4.896;2023-07-24T10:50:17;7.40;;;2.25;;
66874;SDS011;53784;52.630;4.896;2023-07-24T10:52:42;5.05;;;2.00;;
66874;SDS011;53784;52.630;4.896;2023-07-24T10:55:07;5.18;;;1.98;;
66874;SDS011;53784;52.630;4.896;2023-07-24T10:57:33;5.10;;;2.03;;
66874;SDS011;53784;52.630;4.896;2023-07-24T10:59:59;5.93;;;1.75;;
66874;SDS011;53784;52.630;4.896;2023-07-24T11:02:24;3.80;;;1.50;;
66874;SDS011;53784;52.630;4.896;2023-07-24T11:04:50;4.78;;;1.88;;
66874;SDS011;53784;52.630;4.896;2023-07-24T11:07:15;4.57;;;2.15;;
66874;SDS011;53784;52.630;4.896;2023-07-24T11:09:41;4.60;;;2.33;;
66874;SDS011;53784;52.630;4.896;2023-07-24T11:12:12;5.05;;;2.10;;
66874;SDS011;53784;52.630;4.896;2023-07-24T11:14:51;5.47;;;2.40;;
66874;SDS011;53784;52.630;4.896;2023-07-24T11:17:20;4.72;;;2.58;;
66874;SDS011;53784;52.630;4.896;2023-07-24T11:19:46;4.13;;;2.22;;
66874;SDS011;53784;52.630;4.896;2023-07-24T11:22:11;5.00;;;2.40;;
66874;SDS011;53784;52.630;4.896;2023-07-24T11:24:46;5.18;;;2.60;;
66874;SDS011;53784;52.630;4.896;2023-07-24T11:27:12;4.90;;;2.30;;
66874;SDS011;53784;52.630;4.896;2023-07-24T11:29:39;4.35;;;2.00;;
66874;SDS011;53784;52.630;4.896;2023-07-24T11:32:05;4.65;;;2.13;;
66874;SDS011;53784;52.630;4.896;2023-07-24T11:34:30;5.55;;;2.17;;
66874;SDS011;53784;52.630;4.896;2023-07-24T11:36:56;5.68;;;2.40;;
66874;SDS011;53784;52.630;4.896;2023-07-24T11:39:22;5.25;;;2.25;;
66874;SDS011;53784;52.630;4.896;2023-07-24T11:41:47;4.45;;;2.30;;
66874;SDS011;53784;52.630;4.896;2023-07-24T11:44:13;4.97;;;1.90;;
66874;SDS011;53784;52.630;4.896;2023-07-24T11:46:41;3.67;;;1.70;;
66874;SDS011;53784;52.630;4.896;2023-07-24T11:49:07;4.57;;;1.90;;
66874;SDS011;53784;52.630;4.896;2023-07-24T11:51:32;3.08;;;1.50;;
66874;SDS011;53784;52.630;4.896;2023-07-24T11:54:08;3.30;;;1.38;;
66874;SDS011;53784;52.630;4.896;2023-07-24T11:56:36;3.47;;;1.35;;
66874;SDS011;53784;52.630;4.896;2023-07-24T11:59:11;3.10;;;1.27;;
66874;SDS011;53784;52.630;4.896;2023-07-24T12:01:37;3.20;;;1.17;;
66874;SDS011;53784;52.630;4.896;2023-07-24T12:04:03;3.15;;;1.35;;
66874;SDS011;53784;52.630;4.896;2023-07-24T12:06:30;2.05;;;1.02;;
66874;SDS011;53784;52.630;4.896;2023-07-24T12:09:02;2.80;;;1.15;;
66874;SDS011;53784;52.630;4.896;2023-07-24T12:11:29;2.53;;;1.15;;
66874;SDS011;53784;52.630;4.896;2023-07-24T12:13:55;3.17;;;1.00;;
66874;SDS011;53784;52.630;4.896;2023-07-24T12:16:20;2.13;;;0.90;;
66874;SDS011;53784;52.630;4.896;2023-07-24T12:18:46;3.25;;;1.05;;
66874;SDS011;53784;52.630;4.896;2023-07-24T12:21:11;2.40;;;1.00;;
66874;SDS011;53784;52.630;4.896;2023-07-24T12:23:36;3.57;;;1.20;;
66874;SDS011;53784;52.630;4.896;2023-07-24T12:26:02;3.50;;;1.23;;
66874;SDS011;53784;52.630;4.896;2023-07-24T12:28:27;5.22;;;1.40;;
66874;SDS011;53784;52.630;4.896;2023-07-24T12:30:52;4.82;;;1.40;;
66874;SDS011;53784;52.630;4.896;2023-07-24T12:33:18;5.60;;;1.65;;
66874;SDS011;53784;52.630;4.896;2023-07-24T12:35:43;4.10;;;1.30;;
66874;SDS011;53784;52.630;4.896;2023-07-24T12:38:08;4.85;;;1.40;;
66874;SDS011;53784;52.630;4.896;2023-07-24T12:40:34;5.85;;;1.40;;
66874;SDS011;53784;52.630;4.896;2023-07-24T12:42:59;5.78;;;1.60;;
66874;SDS011;53784;52.630;4.896;2023-07-24T12:45:24;4.97;;;1.45;;
66874;SDS011;53784;52.630;4.896;2023-07-24T12:47:49;5.33;;;1.50;;
66874;SDS011;53784;52.630;4.896;2023-07-24T12:50:15;4.30;;;1.60;;
66874;SDS011;53784;52.630;4.896;2023-07-24T12:52:40;6.37;;;1.53;;
66874;SDS011;53784;52.630;4.896;2023-07-24T12:55:05;5.10;;;1.50;;
66874;SDS011;53784;52.630;4.896;2023-07-24T12:57:31;4.38;;;1.60;;
66874;SDS011;53784;52.630;4.896;2023-07-24T12:59:57;7.93;;;1.60;;
66874;SDS011;53784;52.630;4.896;2023-07-24T13:02:22;6.53;;;1.58;;
66874;SDS011;53784;52.630;4.896;2023-07-24T13:04:47;5.30;;;1.58;;
66874;SDS011;53784;52.630;4.896;2023-07-24T13:07:13;6.55;;;1.48;;
66874;SDS011;53784;52.630;4.896;2023-07-24T13:09:38;7.50;;;1.40;;
66874;SDS011;53784;52.630;4.896;2023-07-24T13:12:03;6.03;;;1.45;;
66874;SDS011;53784;52.630;4.896;2023-07-24T13:14:29;5.97;;;1.35;;
66874;SDS011;53784;52.630;4.896;2023-07-24T13:16:54;5.40;;;1.35;;
66874;SDS011;53784;52.630;4.896;2023-07-24T13:19:20;4.57;;;1.35;;
66874;SDS011;53784;52.630;4.896;2023-07-24T13:21:45;4.50;;;1.33;;
66874;SDS011;53784;52.630;4.896;2023-07-24T13:24:12;6.78;;;1.30;;
66874;SDS011;53784;52.630;4.896;2023-07-24T13:26:37;4.13;;;1.33;;
66874;SDS011;53784;52.630;4.896;2023-07-24T13:29:03;5.95;;;1.20;;
66874;SDS011;53784;52.630;4.896;2023-07-24T13:31:28;7.07;;;1.42;;
66874;SDS011;53784;52.630;4.896;2023-07-24T13:33:54;5.38;;;1.30;;
66874;SDS011;53784;52.630;4.896;2023-07-24T13:36:19;2.75;;;1.00;;
66874;SDS011;53784;52.630;4.896;2023-07-24T13:38:44;3.47;;;1.00;;
66874;SDS011;53784;52.630;4.896;2023-07-24T13:41:10;3.13;;;1.05;;
66874;SDS011;53784;52.630;4.896;2023-07-24T13:43:35;4.10;;;1.10;;
66874;SDS011;53784;52.630;4.896;2023-07-24T13:46:00;2.78;;;0.90;;
66874;SDS011;53784;52.630;4.896;2023-07-24T13:48:28;4.00;;;0.90;;
66874;SDS011;53784;52.630;4.896;2023-07-24T13:50:53;3.80;;;0.90;;
66874;SDS011;53784;52.630;4.896;2023-07-24T13:53:18;4.47;;;1.00;;
66874;SDS011;53784;52.630;4.896;2023-07-24T13:55:44;4.68;;;0.98;;
66874;SDS011;53784;52.630;4.896;2023-07-24T13:58:09;4.85;;;1.08;;
66874;SDS011;53784;52.630;4.896;2023-07-24T14:00:34;3.13;;;0.85;;
66874;SDS011;53784;52.630;4.896;2023-07-24T14:03:00;3.35;;;0.80;;
66874;SDS011;53784;52.630;4.896;2023-07-24T14:05:25;2.88;;;0.80;;
66874;SDS011;53784;52.630;4.896;2023-07-24T14:07:51;3.65;;;0.60;;
66874;SDS011;53784;52.630;4.896;2023-07-24T14:10:16;1.90;;;0.60;;
66874;SDS011;53784;52.630;4.896;2023-07-24T14:12:41;2.22;;;0.70;;
66874;SDS011;53784;52.630;4.896;2023-07-24T14:15:07;2.95;;;0.80;;
66874;SDS011;53784;52.630;4.896;2023-07-24T14:17:32;2.95;;;0.82;;
66874;SDS011;53784;52.630;4.896;2023-07-24T14:19:59;4.90;;;0.80;;
66874;SDS011;53784;52.630;4.896;2023-07-24T14:22:25;3.45;;;0.90;;
66874;SDS011;53784;52.630;4.896;2023-07-24T14:24:50;3.13;;;0.75;;
66874;SDS011;53784;52.630;4.896;2023-07-24T14:27:15;3.17;;;0.98;;
66874;SDS011;53784;52.630;4.896;2023-07-24T14:29:41;2.92;;;0.93;;
66874;SDS011;53784;52.630;4.896;2023-07-24T14:32:06;5.20;;;0.80;;
66874;SDS011;53784;52.630;4.896;2023-07-24T14:34:32;5.82;;;1.10;;
66874;SDS011;53784;52.630;4.896;2023-07-24T14:36:57;5.65;;;1.00;;
66874;SDS011;53784;52.630;4.896;2023-07-24T14:39:22;5.13;;;0.90;;
66874;SDS011;53784;52.630;4.896;2023-07-24T14:41:48;4.13;;;1.00;;